首页
METAR-TAF:

METAR-TAF

机场 :

Malcolm McKinnon Airport

布朗斯维克, 喬治亞, 美国

纬度: 31-09-06N, 经度: 081-23-29W, 海拔: 6米

当前天气观测

该预报发布于40分钟前的20:53 UTC
风速3节,风向东转东南
温度 27°C
湿度 84%
气压 1016 hPa
能見度: 16.1公里
散云层高于7500英尺
多云层高于9500英尺
阴天层高于11000英尺

METAR: KSSI 062053Z AUTO 12003KT 10SM SCT075 BKN095 OVC110 27/24 A2999 RMK AO2 LTG DSNT NW SLP158 60000 T02670239 56020

时间: 17:33 (21:33 UTC)

预报

该预报发布于2小时和17分钟前的19:16 UTC
预报有效从06日的 19点(UTC)到 07日的 18点(UTC)
风速7节,风向
能見度: 9.7公里
散云层高于1500英尺
阴天层高于3500英尺, 积雨云.
阵雨, 附近有雷暴
短暂存在
从 06日的 19点(UTC)到 06日的 22点(UTC)
能見度: 4.8公里
阴天层高于1500英尺
阵雨
从 06日的 2200点(UTC)
风速8节,风向南转南东
能見度: 8.0公里
散云层高于2500英尺
多云层高于7000英尺
阴天层高于10000英尺
小阵雨, 轻雾
从 07日的 0100点(UTC)
风速11节,风向南转南东
能見度: 4.8公里
散云层高于1500英尺
多云层高于2500英尺
阴天层高于7000英尺
大阵雨, 轻雾
短暂存在
从 07日的 02点(UTC)到 07日的 06点(UTC)
能見度: 1.6公里
散云层高于500英尺
多云层高于1500英尺
阴天层高于4000英尺
大阵雨, 轻雾

TAF: KSSI 061916Z 0619/0718 19007KT 6SM SHRA VCTS SCT015 OVC035CB TEMPO 0619/0622 3SM SHRA OVC015 FM062200 16008KT 5SM -SHRA BR SCT025 BKN070 OVC100 FM070100 15011KT 3SM +SHRA BR SCT015 BKN025 OVC070 TEMPO 0702/0706 1SM +SHRA BR SCT005 BKN015 OVC040

超过4000个机场的气象观测和天气预报(METAR&TAF报告)。

可查询的气象台以黄色和红色小点在地图上表示。

将鼠标移到小点上方,可查看气象台名称。

然后点击查看天气观测和预报。

如需切换地图:点击带黑十字的绿色按钮放大地图;点击带横线的绿色按钮缩小地图;或者点击绿色箭头查看邻近地区的地图。


METAR-TAF: